sensor_id;sensor_type;location;lat;lon;timestamp;P1;durP1;ratioP1;P2;durP2;ratioP2
6755;SDS011;3415;51.148;7.014;2022-07-12T00:00:20;4.83;;;2.20;;
6755;SDS011;3415;51.148;7.014;2022-07-12T00:02:49;3.00;;;2.00;;
6755;SDS011;3415;51.148;7.014;2022-07-12T00:05:16;3.77;;;2.30;;
6755;SDS011;3415;51.148;7.014;2022-07-12T00:07:43;4.40;;;3.00;;
6755;SDS011;3415;51.148;7.014;2022-07-12T00:10:10;3.13;;;2.60;;
6755;SDS011;3415;51.148;7.014;2022-07-12T00:12:37;4.43;;;2.80;;
6755;SDS011;3415;51.148;7.014;2022-07-12T00:15:05;3.30;;;2.70;;
6755;SDS011;3415;51.148;7.014;2022-07-12T00:17:32;2.40;;;2.20;;
6755;SDS011;3415;51.148;7.014;2022-07-12T00:20:01;3.33;;;2.60;;
6755;SDS011;3415;51.148;7.014;2022-07-12T00:22:28;4.03;;;2.73;;
6755;SDS011;3415;51.148;7.014;2022-07-12T00:24:54;3.87;;;2.80;;
6755;SDS011;3415;51.148;7.014;2022-07-12T00:27:21;3.00;;;2.67;;
6755;SDS011;3415;51.148;7.014;2022-07-12T00:29:48;3.70;;;2.70;;
6755;SDS011;3415;51.148;7.014;2022-07-12T00:32:15;2.87;;;2.60;;
6755;SDS011;3415;51.148;7.014;2022-07-12T00:34:42;5.10;;;2.30;;
6755;SDS011;3415;51.148;7.014;2022-07-12T00:37:10;3.17;;;2.63;;
6755;SDS011;3415;51.148;7.014;2022-07-12T00:39:37;2.40;;;2.20;;
6755;SDS011;3415;51.148;7.014;2022-07-12T00:42:04;3.90;;;3.00;;
6755;SDS011;3415;51.148;7.014;2022-07-12T00:44:31;2.83;;;2.50;;
6755;SDS011;3415;51.148;7.014;2022-07-12T00:46:59;3.37;;;2.57;;
6755;SDS011;3415;51.148;7.014;2022-07-12T00:49:27;3.63;;;2.50;;
6755;SDS011;3415;51.148;7.014;2022-07-12T00:51:54;2.90;;;2.57;;
6755;SDS011;3415;51.148;7.014;2022-07-12T00:54:23;3.50;;;3.03;;
6755;SDS011;3415;51.148;7.014;2022-07-12T00:56:50;3.70;;;2.90;;
6755;SDS011;3415;51.148;7.014;2022-07-12T00:59:16;3.93;;;2.90;;
6755;SDS011;3415;51.148;7.014;2022-07-12T01:01:43;3.73;;;3.20;;
6755;SDS011;3415;51.148;7.014;2022-07-12T01:04:11;4.00;;;3.30;;
6755;SDS011;3415;51.148;7.014;2022-07-12T01:06:38;5.10;;;3.70;;
6755;SDS011;3415;51.148;7.014;2022-07-12T01:09:05;5.40;;;3.17;;
6755;SDS011;3415;51.148;7.014;2022-07-12T01:11:34;4.40;;;3.13;;
6755;SDS011;3415;51.148;7.014;2022-07-12T01:14:01;6.83;;;2.90;;
6755;SDS011;3415;51.148;7.014;2022-07-12T01:16:28;2.53;;;2.33;;
6755;SDS011;3415;51.148;7.014;2022-07-12T01:18:57;3.10;;;2.30;;
6755;SDS011;3415;51.148;7.014;2022-07-12T01:21:25;7.23;;;2.63;;
6755;SDS011;3415;51.148;7.014;2022-07-12T01:23:58;3.60;;;2.77;;
6755;SDS011;3415;51.148;7.014;2022-07-12T01:26:27;6.70;;;3.37;;
6755;SDS011;3415;51.148;7.014;2022-07-12T01:28:54;3.87;;;2.97;;
6755;SDS011;3415;51.148;7.014;2022-07-12T01:31:22;4.10;;;2.63;;
6755;SDS011;3415;51.148;7.014;2022-07-12T01:33:48;4.00;;;3.00;;
6755;SDS011;3415;51.148;7.014;2022-07-12T01:36:16;3.73;;;2.87;;
6755;SDS011;3415;51.148;7.014;2022-07-12T01:38:43;3.43;;;2.60;;
6755;SDS011;3415;51.148;7.014;2022-07-12T01:41:11;3.27;;;2.97;;
6755;SDS011;3415;51.148;7.014;2022-07-12T01:43:38;3.97;;;2.97;;
6755;SDS011;3415;51.148;7.014;2022-07-12T01:46:05;2.37;;;2.17;;
6755;SDS011;3415;51.148;7.014;2022-07-12T01:48:32;3.00;;;2.70;;
6755;SDS011;3415;51.148;7.014;2022-07-12T01:50:59;3.87;;;2.87;;
6755;SDS011;3415;51.148;7.014;2022-07-12T01:53:26;3.70;;;3.00;;
6755;SDS011;3415;51.148;7.014;2022-07-12T01:55:53;4.83;;;3.03;;
6755;SDS011;3415;51.148;7.014;2022-07-12T01:58:21;3.83;;;2.80;;
6755;SDS011;3415;51.148;7.014;2022-07-12T02:00:49;5.07;;;3.13;;
6755;SDS011;3415;51.148;7.014;2022-07-12T02:03:17;4.80;;;3.13;;
6755;SDS011;3415;51.148;7.014;2022-07-12T02:05:44;3.60;;;2.80;;
6755;SDS011;3415;51.148;7.014;2022-07-12T02:08:11;3.40;;;2.80;;
6755;SDS011;3415;51.148;7.014;2022-07-12T02:10:38;3.87;;;2.67;;
6755;SDS011;3415;51.148;7.014;2022-07-12T02:13:05;3.93;;;3.07;;
6755;SDS011;3415;51.148;7.014;2022-07-12T02:15:33;5.50;;;2.90;;
6755;SDS011;3415;51.148;7.014;2022-07-12T02:18:00;7.90;;;2.97;;
6755;SDS011;3415;51.148;7.014;2022-07-12T02:20:27;3.67;;;2.70;;
6755;SDS011;3415;51.148;7.014;2022-07-12T02:22:54;3.27;;;2.80;;
6755;SDS011;3415;51.148;7.014;2022-07-12T02:25:21;3.20;;;2.73;;
6755;SDS011;3415;51.148;7.014;2022-07-12T02:27:47;7.73;;;2.47;;
6755;SDS011;3415;51.148;7.014;2022-07-12T02:30:14;4.50;;;3.17;;
6755;SDS011;3415;51.148;7.014;2022-07-12T02:32:42;4.77;;;3.20;;
6755;SDS011;3415;51.148;7.014;2022-07-12T02:35:10;4.17;;;3.20;;
6755;SDS011;3415;51.148;7.014;2022-07-12T02:37:37;4.70;;;3.07;;
6755;SDS011;3415;51.148;7.014;2022-07-12T02:40:04;3.83;;;3.00;;
6755;SDS011;3415;51.148;7.014;2022-07-12T02:42:50;5.43;;;3.33;;
6755;SDS011;3415;51.148;7.014;2022-07-12T02:45:17;4.67;;;3.13;;
6755;SDS011;3415;51.148;7.014;2022-07-12T02:47:46;6.10;;;2.90;;
6755;SDS011;3415;51.148;7.014;2022-07-12T02:50:12;4.13;;;3.13;;
6755;SDS011;3415;51.148;7.014;2022-07-12T02:52:39;5.87;;;3.50;;
6755;SDS011;3415;51.148;7.014;2022-07-12T02:55:06;4.33;;;3.67;;
6755;SDS011;3415;51.148;7.014;2022-07-12T02:57:34;4.30;;;3.47;;
6755;SDS011;3415;51.148;7.014;2022-07-12T03:00:00;4.40;;;3.00;;
6755;SDS011;3415;51.148;7.014;2022-07-12T03:02:27;6.37;;;3.10;;
6755;SDS011;3415;51.148;7.014;2022-07-12T03:04:55;6.30;;;4.30;;
6755;SDS011;3415;51.148;7.014;2022-07-12T03:07:23;6.20;;;4.53;;
6755;SDS011;3415;51.148;7.014;2022-07-12T03:09:50;7.37;;;4.87;;
6755;SDS011;3415;51.148;7.014;2022-07-12T03:12:17;8.67;;;6.43;;
6755;SDS011;3415;51.148;7.014;2022-07-12T03:14:44;14.10;;;9.00;;
6755;SDS011;3415;51.148;7.014;2022-07-12T03:17:11;12.90;;;7.63;;
6755;SDS011;3415;51.148;7.014;2022-07-12T03:19:37;9.67;;;6.63;;
6755;SDS011;3415;51.148;7.014;2022-07-12T03:22:06;13.87;;;8.73;;
6755;SDS011;3415;51.148;7.014;2022-07-12T03:24:32;13.03;;;8.20;;
6755;SDS011;3415;51.148;7.014;2022-07-12T03:26:59;11.27;;;7.33;;
6755;SDS011;3415;51.148;7.014;2022-07-12T03:29:26;15.60;;;9.40;;
6755;SDS011;3415;51.148;7.014;2022-07-12T03:31:53;12.80;;;9.10;;
6755;SDS011;3415;51.148;7.014;2022-07-12T03:34:20;11.83;;;7.63;;
6755;SDS011;3415;51.148;7.014;2022-07-12T03:36:46;9.50;;;7.33;;
6755;SDS011;3415;51.148;7.014;2022-07-12T03:39:15;13.03;;;7.27;;
6755;SDS011;3415;51.148;7.014;2022-07-12T03:41:41;10.30;;;6.73;;
6755;SDS011;3415;51.148;7.014;2022-07-12T03:44:08;10.50;;;7.00;;
6755;SDS011;3415;51.148;7.014;2022-07-12T03:46:35;10.23;;;7.13;;
6755;SDS011;3415;51.148;7.014;2022-07-12T03:49:02;10.67;;;7.20;;
6755;SDS011;3415;51.148;7.014;2022-07-12T03:51:29;10.40;;;7.00;;
6755;SDS011;3415;51.148;7.014;2022-07-12T03:53:56;11.63;;;7.73;;
6755;SDS011;3415;51.148;7.014;2022-07-12T03:56:24;11.80;;;8.40;;
6755;SDS011;3415;51.148;7.014;2022-07-12T03:59:08;10.33;;;6.60;;
6755;SDS011;3415;51.148;7.014;2022-07-12T04:01:35;9.07;;;5.23;;
6755;SDS011;3415;51.148;7.014;2022-07-12T04:04:02;8.07;;;4.63;;
6755;SDS011;3415;51.148;7.014;2022-07-12T04:06:29;4.53;;;3.50;;
6755;SDS011;3415;51.148;7.014;2022-07-12T04:08:56;4.20;;;3.10;;
6755;SDS011;3415;51.148;7.014;2022-07-12T04:11:24;3.40;;;2.87;;
6755;SDS011;3415;51.148;7.014;2022-07-12T04:13:51;8.03;;;3.10;;
6755;SDS011;3415;51.148;7.014;2022-07-12T04:16:17;2.50;;;2.27;;
6755;SDS011;3415;51.148;7.014;2022-07-12T04:18:45;3.70;;;2.57;;
6755;SDS011;3415;51.148;7.014;2022-07-12T04:21:14;3.90;;;2.90;;
6755;SDS011;3415;51.148;7.014;2022-07-12T04:23:41;4.43;;;3.03;;
6755;SDS011;3415;51.148;7.014;2022-07-12T04:26:08;5.07;;;2.83;;
6755;SDS011;3415;51.148;7.014;2022-07-12T04:28:36;3.00;;;2.70;;
6755;SDS011;3415;51.148;7.014;2022-07-12T04:31:03;3.60;;;2.47;;
6755;SDS011;3415;51.148;7.014;2022-07-12T04:33:31;3.80;;;2.77;;
6755;SDS011;3415;51.148;7.014;2022-07-12T04:36:02;3.40;;;2.70;;
6755;SDS011;3415;51.148;7.014;2022-07-12T04:38:29;4.07;;;2.70;;
6755;SDS011;3415;51.148;7.014;2022-07-12T04:40:56;3.07;;;2.30;;
6755;SDS011;3415;51.148;7.014;2022-07-12T04:43:23;3.73;;;2.83;;
6755;SDS011;3415;51.148;7.014;2022-07-12T04:45:52;13.27;;;3.50;;
6755;SDS011;3415;51.148;7.014;2022-07-12T04:48:19;4.37;;;3.00;;
6755;SDS011;3415;51.148;7.014;2022-07-12T04:50:45;4.43;;;3.00;;
6755;SDS011;3415;51.148;7.014;2022-07-12T04:53:12;3.40;;;2.60;;
6755;SDS011;3415;51.148;7.014;2022-07-12T04:55:39;4.13;;;2.93;;
6755;SDS011;3415;51.148;7.014;2022-07-12T04:58:06;6.73;;;3.57;;
6755;SDS011;3415;51.148;7.014;2022-07-12T05:00:33;4.13;;;3.13;;
6755;SDS011;3415;51.148;7.014;2022-07-12T05:03:01;5.00;;;3.33;;
6755;SDS011;3415;51.148;7.014;2022-07-12T05:05:28;11.90;;;3.50;;
6755;SDS011;3415;51.148;7.014;2022-07-12T05:07:55;3.57;;;2.67;;
6755;SDS011;3415;51.148;7.014;2022-07-12T05:10:22;4.57;;;2.90;;
6755;SDS011;3415;51.148;7.014;2022-07-12T05:12:49;4.47;;;2.87;;
6755;SDS011;3415;51.148;7.014;2022-07-12T05:15:16;4.23;;;3.20;;
6755;SDS011;3415;51.148;7.014;2022-07-12T05:17:43;4.10;;;3.17;;
6755;SDS011;3415;51.148;7.014;2022-07-12T05:20:12;4.70;;;3.13;;
6755;SDS011;3415;51.148;7.014;2022-07-12T05:22:39;4.20;;;3.20;;
6755;SDS011;3415;51.148;7.014;2022-07-12T05:25:06;2.87;;;2.40;;
6755;SDS011;3415;51.148;7.014;2022-07-12T05:27:33;7.40;;;3.47;;
6755;SDS011;3415;51.148;7.014;2022-07-12T05:30:00;3.43;;;2.80;;
6755;SDS011;3415;51.148;7.014;2022-07-12T05:32:27;4.73;;;2.60;;
6755;SDS011;3415;51.148;7.014;2022-07-12T05:34:54;3.30;;;2.70;;
6755;SDS011;3415;51.148;7.014;2022-07-12T05:37:23;2.83;;;2.40;;
6755;SDS011;3415;51.148;7.014;2022-07-12T05:39:50;3.63;;;2.43;;
6755;SDS011;3415;51.148;7.014;2022-07-12T05:42:17;6.30;;;2.20;;
6755;SDS011;3415;51.148;7.014;2022-07-12T05:44:44;3.90;;;2.13;;
6755;SDS011;3415;51.148;7.014;2022-07-12T05:47:10;4.00;;;2.23;;
6755;SDS011;3415;51.148;7.014;2022-07-12T05:49:38;5.60;;;2.40;;
6755;SDS011;3415;51.148;7.014;2022-07-12T05:52:05;7.63;;;2.70;;
6755;SDS011;3415;51.148;7.014;2022-07-12T05:54:51;8.17;;;3.07;;
6755;SDS011;3415;51.148;7.014;2022-07-12T05:57:18;5.87;;;2.40;;
6755;SDS011;3415;51.148;7.014;2022-07-12T05:59:45;14.10;;;3.00;;
6755;SDS011;3415;51.148;7.014;2022-07-12T06:02:12;5.80;;;2.33;;
6755;SDS011;3415;51.148;7.014;2022-07-12T06:04:39;6.93;;;2.90;;
6755;SDS011;3415;51.148;7.014;2022-07-12T06:07:06;6.03;;;2.13;;
6755;SDS011;3415;51.148;7.014;2022-07-12T06:09:33;6.37;;;2.50;;
6755;SDS011;3415;51.148;7.014;2022-07-12T06:12:02;6.30;;;2.40;;
6755;SDS011;3415;51.148;7.014;2022-07-12T06:14:29;8.53;;;3.17;;
6755;SDS011;3415;51.148;7.014;2022-07-12T06:16:56;8.37;;;2.50;;
6755;SDS011;3415;51.148;7.014;2022-07-12T06:19:22;9.00;;;3.17;;
6755;SDS011;3415;51.148;7.014;2022-07-12T06:21:50;9.63;;;2.40;;
6755;SDS011;3415;51.148;7.014;2022-07-12T06:24:18;9.10;;;2.43;;
6755;SDS011;3415;51.148;7.014;2022-07-12T06:26:45;10.13;;;2.40;;
6755;SDS011;3415;51.148;7.014;2022-07-12T06:29:13;12.60;;;3.30;;
6755;SDS011;3415;51.148;7.014;2022-07-12T06:31:40;10.20;;;2.43;;
6755;SDS011;3415;51.148;7.014;2022-07-12T06:34:06;10.17;;;2.57;;
6755;SDS011;3415;51.148;7.014;2022-07-12T06:36:33;10.83;;;2.50;;
6755;SDS011;3415;51.148;7.014;2022-07-12T06:39:00;11.20;;;2.63;;
6755;SDS011;3415;51.148;7.014;2022-07-12T06:41:27;11.30;;;3.03;;
6755;SDS011;3415;51.148;7.014;2022-07-12T06:43:55;13.00;;;2.93;;
6755;SDS011;3415;51.148;7.014;2022-07-12T06:46:23;9.73;;;2.40;;
6755;SDS011;3415;51.148;7.014;2022-07-12T06:48:50;10.90;;;2.60;;
6755;SDS011;3415;51.148;7.014;2022-07-12T06:51:17;13.00;;;3.00;;
6755;SDS011;3415;51.148;7.014;2022-07-12T06:53:44;14.30;;;2.70;;
6755;SDS011;3415;51.148;7.014;2022-07-12T06:56:11;12.03;;;2.37;;
6755;SDS011;3415;51.148;7.014;2022-07-12T06:58:38;13.10;;;2.60;;
6755;SDS011;3415;51.148;7.014;2022-07-12T07:01:05;13.53;;;2.80;;
6755;SDS011;3415;51.148;7.014;2022-07-12T07:03:33;13.90;;;2.63;;
6755;SDS011;3415;51.148;7.014;2022-07-12T07:06:00;15.47;;;3.20;;
6755;SDS011;3415;51.148;7.014;2022-07-12T07:08:27;17.37;;;3.40;;
6755;SDS011;3415;51.148;7.014;2022-07-12T07:10:56;17.60;;;3.60;;
6755;SDS011;3415;51.148;7.014;2022-07-12T07:13:23;16.93;;;4.20;;
6755;SDS011;3415;51.148;7.014;2022-07-12T07:15:50;16.00;;;3.50;;
6755;SDS011;3415;51.148;7.014;2022-07-12T07:18:17;16.40;;;3.53;;
6755;SDS011;3415;51.148;7.014;2022-07-12T07:20:45;17.87;;;4.00;;
6755;SDS011;3415;51.148;7.014;2022-07-12T07:23:11;18.17;;;3.93;;
6755;SDS011;3415;51.148;7.014;2022-07-12T07:25:41;17.93;;;3.77;;
6755;SDS011;3415;51.148;7.014;2022-07-12T07:28:09;17.77;;;4.03;;
6755;SDS011;3415;51.148;7.014;2022-07-12T07:30:35;17.67;;;3.70;;
6755;SDS011;3415;51.148;7.014;2022-07-12T07:33:19;21.03;;;4.60;;
6755;SDS011;3415;51.148;7.014;2022-07-12T07:35:48;19.10;;;4.43;;
6755;SDS011;3415;51.148;7.014;2022-07-12T07:38:16;19.17;;;4.80;;
6755;SDS011;3415;51.148;7.014;2022-07-12T07:40:44;20.00;;;4.03;;
6755;SDS011;3415;51.148;7.014;2022-07-12T07:43:11;21.50;;;4.63;;
6755;SDS011;3415;51.148;7.014;2022-07-12T07:45:38;21.47;;;4.80;;
6755;SDS011;3415;51.148;7.014;2022-07-12T07:48:05;23.87;;;4.20;;
6755;SDS011;3415;51.148;7.014;2022-07-12T07:50:32;22.43;;;4.57;;
6755;SDS011;3415;51.148;7.014;2022-07-12T07:53:00;23.17;;;4.70;;
6755;SDS011;3415;51.148;7.014;2022-07-12T07:55:27;21.57;;;4.40;;
6755;SDS011;3415;51.148;7.014;2022-07-12T07:57:54;21.70;;;3.70;;
6755;SDS011;3415;51.148;7.014;2022-07-12T08:00:20;23.07;;;4.60;;
6755;SDS011;3415;51.148;7.014;2022-07-12T08:02:47;22.40;;;4.00;;
6755;SDS011;3415;51.148;7.014;2022-07-12T08:05:14;24.10;;;4.03;;
6755;SDS011;3415;51.148;7.014;2022-07-12T08:07:41;25.87;;;4.80;;
6755;SDS011;3415;51.148;7.014;2022-07-12T08:10:10;22.27;;;3.40;;
6755;SDS011;3415;51.148;7.014;2022-07-12T08:12:36;23.53;;;3.43;;
6755;SDS011;3415;51.148;7.014;2022-07-12T08:15:04;23.90;;;4.17;;
6755;SDS011;3415;51.148;7.014;2022-07-12T08:17:32;23.57;;;3.97;;
6755;SDS011;3415;51.148;7.014;2022-07-12T08:19:59;21.13;;;3.27;;
6755;SDS011;3415;51.148;7.014;2022-07-12T08:22:26;22.87;;;3.60;;
6755;SDS011;3415;51.148;7.014;2022-07-12T08:24:53;26.43;;;3.57;;
6755;SDS011;3415;51.148;7.014;2022-07-12T08:27:21;25.67;;;4.40;;
6755;SDS011;3415;51.148;7.014;2022-07-12T08:29:48;25.20;;;4.07;;
6755;SDS011;3415;51.148;7.014;2022-07-12T08:32:15;23.17;;;3.37;;
6755;SDS011;3415;51.148;7.014;2022-07-12T08:34:42;23.80;;;3.30;;
6755;SDS011;3415;51.148;7.014;2022-07-12T08:37:09;25.13;;;3.73;;
6755;SDS011;3415;51.148;7.014;2022-07-12T08:39:36;23.67;;;3.37;;
6755;SDS011;3415;51.148;7.014;2022-07-12T08:42:03;24.20;;;3.17;;
6755;SDS011;3415;51.148;7.014;2022-07-12T08:44:36;25.97;;;4.07;;
6755;SDS011;3415;51.148;7.014;2022-07-12T08:47:03;25.03;;;3.77;;
6755;SDS011;3415;51.148;7.014;2022-07-12T08:49:33;24.20;;;3.10;;
6755;SDS011;3415;51.148;7.014;2022-07-12T08:52:00;25.40;;;3.20;;
6755;SDS011;3415;51.148;7.014;2022-07-12T08:54:43;24.83;;;3.47;;
6755;SDS011;3415;51.148;7.014;2022-07-12T08:57:10;25.30;;;4.30;;
6755;SDS011;3415;51.148;7.014;2022-07-12T08:59:38;25.43;;;3.60;;
6755;SDS011;3415;51.148;7.014;2022-07-12T09:02:05;23.57;;;3.10;;
6755;SDS011;3415;51.148;7.014;2022-07-12T09:04:32;25.60;;;3.90;;
6755;SDS011;3415;51.148;7.014;2022-07-12T09:07:00;25.77;;;3.83;;
6755;SDS011;3415;51.148;7.014;2022-07-12T09:09:40;30.53;;;3.93;;
6755;SDS011;3415;51.148;7.014;2022-07-12T09:12:07;58.33;;;5.13;;
6755;SDS011;3415;51.148;7.014;2022-07-12T09:14:49;23.90;;;3.33;;
6755;SDS011;3415;51.148;7.014;2022-07-12T09:17:21;24.00;;;3.00;;
6755;SDS011;3415;51.148;7.014;2022-07-12T09:19:53;26.40;;;3.47;;
6755;SDS011;3415;51.148;7.014;2022-07-12T09:22:22;27.10;;;3.30;;
6755;SDS011;3415;51.148;7.014;2022-07-12T09:24:49;27.30;;;3.23;;
6755;SDS011;3415;51.148;7.014;2022-07-12T09:27:16;29.70;;;3.87;;
6755;SDS011;3415;51.148;7.014;2022-07-12T09:29:51;27.07;;;3.20;;
6755;SDS011;3415;51.148;7.014;2022-07-12T09:32:18;25.50;;;2.73;;
6755;SDS011;3415;51.148;7.014;2022-07-12T09:35:03;26.77;;;3.17;;
6755;SDS011;3415;51.148;7.014;2022-07-12T09:37:48;26.50;;;3.10;;
6755;SDS011;3415;51.148;7.014;2022-07-12T09:40:15;26.47;;;2.60;;
6755;SDS011;3415;51.148;7.014;2022-07-12T09:42:42;30.83;;;2.83;;
6755;SDS011;3415;51.148;7.014;2022-07-12T09:45:10;27.40;;;2.33;;
6755;SDS011;3415;51.148;7.014;2022-07-12T09:47:38;27.90;;;2.40;;
6755;SDS011;3415;51.148;7.014;2022-07-12T09:50:05;28.57;;;2.47;;
6755;SDS011;3415;51.148;7.014;2022-07-12T09:52:33;29.87;;;2.07;;
6755;SDS011;3415;51.148;7.014;2022-07-12T09:55:02;29.93;;;2.50;;
6755;SDS011;3415;51.148;7.014;2022-07-12T09:57:32;32.57;;;2.10;;
6755;SDS011;3415;51.148;7.014;2022-07-12T10:00:00;30.00;;;2.40;;
6755;SDS011;3415;51.148;7.014;2022-07-12T10:02:32;28.83;;;2.13;;
6755;SDS011;3415;51.148;7.014;2022-07-12T10:05:00;29.83;;;2.80;;
6755;SDS011;3415;51.148;7.014;2022-07-12T10:07:30;25.97;;;2.33;;
6755;SDS011;3415;51.148;7.014;2022-07-12T10:09:57;26.87;;;2.17;;
6755;SDS011;3415;51.148;7.014;2022-07-12T10:12:24;26.20;;;2.10;;
6755;SDS011;3415;51.148;7.014;2022-07-12T10:14:55;27.60;;;2.20;;
6755;SDS011;3415;51.148;7.014;2022-07-12T10:17:26;28.30;;;1.80;;
6755;SDS011;3415;51.148;7.014;2022-07-12T10:22:43;29.50;;;2.40;;
6755;SDS011;3415;51.148;7.014;2022-07-12T10:25:29;29.30;;;2.13;;
6755;SDS011;3415;51.148;7.014;2022-07-12T10:27:57;28.40;;;2.13;;
6755;SDS011;3415;51.148;7.014;2022-07-12T10:30:25;27.50;;;1.80;;
6755;SDS011;3415;51.148;7.014;2022-07-12T10:32:53;26.73;;;2.03;;
6755;SDS011;3415;51.148;7.014;2022-07-12T10:35:24;27.53;;;1.90;;
6755;SDS011;3415;51.148;7.014;2022-07-12T10:38:13;25.43;;;2.40;;
6755;SDS011;3415;51.148;7.014;2022-07-12T10:40:44;24.70;;;2.10;;
6755;SDS011;3415;51.148;7.014;2022-07-12T10:43:13;25.70;;;2.20;;
6755;SDS011;3415;51.148;7.014;2022-07-12T10:45:42;25.60;;;2.30;;
6755;SDS011;3415;51.148;7.014;2022-07-12T10:48:18;25.23;;;2.10;;
6755;SDS011;3415;51.148;7.014;2022-07-12T10:50:51;25.23;;;1.90;;
6755;SDS011;3415;51.148;7.014;2022-07-12T10:53:24;25.90;;;1.80;;
6755;SDS011;3415;51.148;7.014;2022-07-12T10:56:07;31.67;;;2.27;;
6755;SDS011;3415;51.148;7.014;2022-07-12T10:58:35;29.17;;;2.50;;
6755;SDS011;3415;51.148;7.014;2022-07-12T11:01:04;27.40;;;2.33;;
6755;SDS011;3415;51.148;7.014;2022-07-12T11:03:37;25.90;;;1.90;;
6755;SDS011;3415;51.148;7.014;2022-07-12T11:06:07;26.53;;;2.00;;
6755;SDS011;3415;51.148;7.014;2022-07-12T11:08:51;26.50;;;2.00;;
6755;SDS011;3415;51.148;7.014;2022-07-12T11:11:20;25.37;;;1.80;;
6755;SDS011;3415;51.148;7.014;2022-07-12T11:13:48;29.90;;;2.30;;
6755;SDS011;3415;51.148;7.014;2022-07-12T11:16:15;28.13;;;2.07;;
6755;SDS011;3415;51.148;7.014;2022-07-12T11:18:42;38.50;;;2.20;;
6755;SDS011;3415;51.148;7.014;2022-07-12T11:21:12;29.10;;;1.77;;
6755;SDS011;3415;51.148;7.014;2022-07-12T11:23:39;31.83;;;2.20;;
6755;SDS011;3415;51.148;7.014;2022-07-12T11:26:07;28.10;;;1.90;;
6755;SDS011;3415;51.148;7.014;2022-07-12T11:28:35;26.37;;;2.13;;
6755;SDS011;3415;51.148;7.014;2022-07-12T11:31:03;26.67;;;2.10;;
6755;SDS011;3415;51.148;7.014;2022-07-12T11:33:31;31.93;;;2.27;;
6755;SDS011;3415;51.148;7.014;2022-07-12T11:36:00;27.37;;;2.10;;
6755;SDS011;3415;51.148;7.014;2022-07-12T11:38:31;28.27;;;2.10;;
6755;SDS011;3415;51.148;7.014;2022-07-12T11:41:00;28.30;;;2.00;;
6755;SDS011;3415;51.148;7.014;2022-07-12T11:43:29;27.47;;;2.07;;
6755;SDS011;3415;51.148;7.014;2022-07-12T11:45:56;26.60;;;2.13;;
6755;SDS011;3415;51.148;7.014;2022-07-12T11:48:23;27.80;;;2.33;;
6755;SDS011;3415;51.148;7.014;2022-07-12T11:50:51;27.23;;;2.10;;
6755;SDS011;3415;51.148;7.014;2022-07-12T11:53:20;24.70;;;2.30;;
6755;SDS011;3415;51.148;7.014;2022-07-12T11:55:50;24.30;;;2.00;;
6755;SDS011;3415;51.148;7.014;2022-07-12T11:58:18;25.80;;;1.90;;
6755;SDS011;3415;51.148;7.014;2022-07-12T12:00:46;23.03;;;2.00;;
6755;SDS011;3415;51.148;7.014;2022-07-12T12:03:14;24.20;;;2.13;;
6755;SDS011;3415;51.148;7.014;2022-07-12T12:05:43;26.10;;;2.10;;
6755;SDS011;3415;51.148;7.014;2022-07-12T12:08:11;25.87;;;2.00;;
6755;SDS011;3415;51.148;7.014;2022-07-12T12:10:39;25.83;;;1.80;;
6755;SDS011;3415;51.148;7.014;2022-07-12T12:13:13;24.87;;;1.97;;
6755;SDS011;3415;51.148;7.014;2022-07-12T12:15:48;25.90;;;2.03;;
6755;SDS011;3415;51.148;7.014;2022-07-12T12:18:16;24.60;;;1.90;;
6755;SDS011;3415;51.148;7.014;2022-07-12T12:20:44;24.93;;;2.27;;
6755;SDS011;3415;51.148;7.014;2022-07-12T12:23:14;22.63;;;1.73;;
6755;SDS011;3415;51.148;7.014;2022-07-12T12:25:42;22.47;;;1.80;;
6755;SDS011;3415;51.148;7.014;2022-07-12T12:28:10;35.13;;;2.20;;
6755;SDS011;3415;51.148;7.014;2022-07-12T12:30:48;22.30;;;2.20;;
6755;SDS011;3415;51.148;7.014;2022-07-12T12:33:32;21.27;;;2.03;;
6755;SDS011;3415;51.148;7.014;2022-07-12T12:36:10;21.10;;;1.93;;
6755;SDS011;3415;51.148;7.014;2022-07-12T12:38:41;20.83;;;2.00;;
6755;SDS011;3415;51.148;7.014;2022-07-12T12:41:08;20.10;;;2.00;;
6755;SDS011;3415;51.148;7.014;2022-07-12T12:43:37;20.70;;;1.90;;
6755;SDS011;3415;51.148;7.014;2022-07-12T12:46:04;19.33;;;1.70;;
6755;SDS011;3415;51.148;7.014;2022-07-12T12:48:32;20.20;;;2.20;;
6755;SDS011;3415;51.148;7.014;2022-07-12T12:51:04;19.10;;;2.07;;
6755;SDS011;3415;51.148;7.014;2022-07-12T12:53:33;19.50;;;1.83;;
6755;SDS011;3415;51.148;7.014;2022-07-12T12:56:04;19.40;;;1.90;;
6755;SDS011;3415;51.148;7.014;2022-07-12T12:58:33;20.83;;;1.90;;
6755;SDS011;3415;51.148;7.014;2022-07-12T13:01:02;18.87;;;1.70;;
6755;SDS011;3415;51.148;7.014;2022-07-12T13:03:29;19.17;;;2.00;;
6755;SDS011;3415;51.148;7.014;2022-07-12T13:05:56;18.30;;;1.70;;
6755;SDS011;3415;51.148;7.014;2022-07-12T13:08:24;19.60;;;1.73;;
6755;SDS011;3415;51.148;7.014;2022-07-12T13:10:52;19.87;;;2.00;;
6755;SDS011;3415;51.148;7.014;2022-07-12T13:13:33;19.60;;;1.90;;
6755;SDS011;3415;51.148;7.014;2022-07-12T13:16:02;19.60;;;2.20;;
6755;SDS011;3415;51.148;7.014;2022-07-12T13:18:29;17.90;;;1.83;;
6755;SDS011;3415;51.148;7.014;2022-07-12T13:20:55;18.90;;;2.10;;
6755;SDS011;3415;51.148;7.014;2022-07-12T13:23:23;18.47;;;2.00;;
6755;SDS011;3415;51.148;7.014;2022-07-12T13:25:49;18.17;;;1.90;;
6755;SDS011;3415;51.148;7.014;2022-07-12T13:28:17;17.20;;;1.63;;
6755;SDS011;3415;51.148;7.014;2022-07-12T13:30:44;17.20;;;1.80;;
6755;SDS011;3415;51.148;7.014;2022-07-12T13:33:12;17.77;;;1.90;;
6755;SDS011;3415;51.148;7.014;2022-07-12T13:35:40;18.37;;;1.90;;
6755;SDS011;3415;51.148;7.014;2022-07-12T13:38:07;19.30;;;2.00;;
6755;SDS011;3415;51.148;7.014;2022-07-12T13:40:34;19.50;;;1.90;;
6755;SDS011;3415;51.148;7.014;2022-07-12T13:43:01;18.97;;;2.00;;
6755;SDS011;3415;51.148;7.014;2022-07-12T13:45:29;18.53;;;1.90;;
6755;SDS011;3415;51.148;7.014;2022-07-12T13:47:56;19.47;;;1.90;;
6755;SDS011;3415;51.148;7.014;2022-07-12T13:50:27;19.40;;;1.70;;
6755;SDS011;3415;51.148;7.014;2022-07-12T13:52:54;18.20;;;1.80;;
6755;SDS011;3415;51.148;7.014;2022-07-12T13:55:21;20.37;;;1.70;;
6755;SDS011;3415;51.148;7.014;2022-07-12T13:57:48;18.80;;;1.70;;
6755;SDS011;3415;51.148;7.014;2022-07-12T14:00:15;20.10;;;1.80;;
6755;SDS011;3415;51.148;7.014;2022-07-12T14:02:43;20.47;;;1.93;;
6755;SDS011;3415;51.148;7.014;2022-07-12T14:05:11;19.93;;;2.13;;
6755;SDS011;3415;51.148;7.014;2022-07-12T14:07:41;19.13;;;1.70;;
6755;SDS011;3415;51.148;7.014;2022-07-12T14:10:10;19.40;;;1.80;;
6755;SDS011;3415;51.148;7.014;2022-07-12T14:12:38;19.17;;;2.13;;
6755;SDS011;3415;51.148;7.014;2022-07-12T14:15:05;19.33;;;1.90;;
6755;SDS011;3415;51.148;7.014;2022-07-12T14:17:40;20.00;;;2.00;;
6755;SDS011;3415;51.148;7.014;2022-07-12T14:20:08;20.50;;;2.20;;
6755;SDS011;3415;51.148;7.014;2022-07-12T14:22:37;18.80;;;1.83;;
6755;SDS011;3415;51.148;7.014;2022-07-12T14:25:06;18.77;;;1.70;;
6755;SDS011;3415;51.148;7.014;2022-07-12T14:27:34;17.93;;;1.73;;
6755;SDS011;3415;51.148;7.014;2022-07-12T14:30:03;19.47;;;1.87;;
6755;SDS011;3415;51.148;7.014;2022-07-12T14:32:32;18.77;;;2.00;;
6755;SDS011;3415;51.148;7.014;2022-07-12T14:34:59;18.03;;;1.67;;
6755;SDS011;3415;51.148;7.014;2022-07-12T14:37:26;18.13;;;1.60;;
6755;SDS011;3415;51.148;7.014;2022-07-12T14:39:53;23.50;;;1.90;;
6755;SDS011;3415;51.148;7.014;2022-07-12T14:42:21;19.93;;;2.03;;
6755;SDS011;3415;51.148;7.014;2022-07-12T14:44:48;18.57;;;1.80;;
6755;SDS011;3415;51.148;7.014;2022-07-12T14:47:16;19.20;;;1.93;;
6755;SDS011;3415;51.148;7.014;2022-07-12T14:49:44;17.57;;;1.50;;
6755;SDS011;3415;51.148;7.014;2022-07-12T14:52:11;18.83;;;1.80;;
6755;SDS011;3415;51.148;7.014;2022-07-12T14:54:38;17.93;;;1.90;;
6755;SDS011;3415;51.148;7.014;2022-07-12T14:57:05;17.77;;;1.80;;
6755;SDS011;3415;51.148;7.014;2022-07-12T14:59:33;18.40;;;1.77;;
6755;SDS011;3415;51.148;7.014;2022-07-12T15:02:00;19.43;;;1.90;;
6755;SDS011;3415;51.148;7.014;2022-07-12T15:04:27;19.40;;;2.10;;
6755;SDS011;3415;51.148;7.014;2022-07-12T15:06:54;19.57;;;2.00;;
6755;SDS011;3415;51.148;7.014;2022-07-12T15:09:21;17.20;;;1.70;;
6755;SDS011;3415;51.148;7.014;2022-07-12T15:11:48;20.23;;;2.40;;
6755;SDS011;3415;51.148;7.014;2022-07-12T15:14:15;19.70;;;2.80;;
6755;SDS011;3415;51.148;7.014;2022-07-12T15:16:44;19.20;;;1.97;;